Time;durP1;ratioP1;P1;durP2;ratioP2;P2;SDS_P1;SDS_P2;PMS_P1;PMS_P2;Temp;Humidity;BMP_temperature;BMP_pressure;BME280_temperature;BME280_humidity;BME280_pressure;Samples;Min_cycle;Max_cycle;Signal;HPM_P1;HPM_P2
2023/03/09 06:24:59;;;;;;;28.40;16.80;;;;;;;10.45;83.78;98326.38;105673;1283;613306;-67
2023/03/09 06:27:29;;;;;;;25.80;15.10;;;;;;;12.20;78.05;98328.83;107151;1267;112614;-66
2023/03/09 06:29:58;;;;;;;27.90;15.40;;;;;;;12.70;75.58;98325.83;107332;1267;60348;-66
2023/03/09 06:32:26;;;;;;;26.50;15.70;;;;;;;12.70;74.11;98334.95;107326;1266;69771;-66
2023/03/09 06:34:56;;;;;;;26.10;15.20;;;;;;;12.90;73.40;98333.17;107326;1267;71679;-67
2023/03/09 06:37:24;;;;;;;23.10;14.00;;;;;;;12.74;73.31;98334.34;107310;1267;73878;-66
2023/03/09 06:39:53;;;;;;;22.50;13.90;;;;;;;12.92;67.67;98332.62;107245;1265;60247;-65
2023/03/09 06:42:27;;;;;;;23.40;13.00;;;;;;;13.44;61.37;98324.28;107271;1265;61216;-66
2023/03/09 06:44:56;;;;;;;23.50;12.60;;;;;;;13.57;60.26;98329.69;107320;1265;73667;-65
2023/03/09 06:47:28;;;;;;;19.70;11.20;;;;;;;13.69;59.18;98324.98;107282;1265;70581;-67
2023/03/09 06:50:01;;;;;;;21.10;13.30;;;;;;;13.36;59.48;98315.04;107232;1267;72516;-65
2023/03/09 06:52:30;;;;;;;20.10;13.20;;;;;;;13.83;57.95;98317.38;107344;1267;60722;-67
2023/03/09 06:54:59;;;;;;;24.90;12.90;;;;;;;14.11;56.63;98317.64;107308;1267;61402;-66
2023/03/09 06:57:44;;;;;;;21.70;12.40;;;;;;;14.29;55.98;98315.63;107339;1267;74488;-67
2023/03/09 07:00:16;;;;;;;24.50;13.60;;;;;;;14.28;55.17;98309.39;107357;1267;71860;-66
2023/03/09 07:02:45;;;;;;;22.40;13.10;;;;;;;14.56;53.87;98306.02;107320;1266;72584;-66
2023/03/09 07:05:13;;;;;;;17.50;11.50;;;;;;;14.65;53.81;98301.99;107258;1267;62443;-66
2023/03/09 07:07:42;;;;;;;21.40;12.80;;;;;;;14.51;53.80;98298.86;107339;1267;60417;-65
2023/03/09 07:10:11;;;;;;;20.30;12.40;;;;;;;14.93;52.64;98304.95;107334;1269;74272;-66
2023/03/09 07:12:43;;;;;;;24.10;13.80;;;;;;;15.09;51.80;98299.55;107365;1267;71338;-65
2023/03/09 07:15:12;;;;;;;19.00;12.90;;;;;;;15.29;51.79;98298.00;107318;1267;72151;-66
2023/03/09 07:17:43;;;;;;;21.40;13.90;;;;;;;15.36;51.05;98298.98;107421;1263;60268;-66
2023/03/09 07:20:12;;;;;;;22.60;12.00;;;;;;;15.68;50.28;98304.88;107420;1263;60966;-66
2023/03/09 07:22:44;;;;;;;21.90;14.00;;;;;;;16.02;49.50;98298.41;107382;1263;72760;-67
2023/03/09 07:25:12;;;;;;;23.30;13.10;;;;;;;16.80;47.43;98297.21;107326;1267;71319;-68
2023/03/09 07:27:41;;;;;;;24.40;12.90;;;;;;;17.32;46.01;98293.27;107663;1257;73379;-68
2023/03/09 07:30:11;;;;;;;20.10;12.20;;;;;;;17.83;44.53;98286.58;107757;1257;61371;-65
2023/03/09 07:32:39;;;;;;;22.00;13.20;;;;;;;17.99;43.48;98284.19;107817;1257;61392;-67
2023/03/09 07:35:08;;;;;;;20.20;11.10;;;;;;;18.27;42.79;98276.93;107762;1261;73777;-67
2023/03/09 07:37:37;;;;;;;19.40;11.60;;;;;;;18.45;42.25;98278.04;107782;1257;69498;-68
2023/03/09 07:40:06;;;;;;;19.50;11.50;;;;;;;18.98;40.70;98270.83;107741;1257;73406;-66
2023/03/09 07:42:34;;;;;;;17.00;10.50;;;;;;;19.36;40.33;98273.73;107781;1257;61628;-67
2023/03/09 07:45:34;;;;;;;14.40;9.90;;;;;;;19.95;38.60;98268.17;107622;1257;59893;-66
2023/03/09 07:48:03;;;;;;;16.10;10.00;;;;;;;20.12;37.75;98274.52;107750;1257;74115;-65
2023/03/09 07:50:32;;;;;;;16.80;9.90;;;;;;;19.92;37.76;98270.93;107753;1257;69862;-66
2023/03/09 07:53:00;;;;;;;13.60;8.80;;;;;;;19.32;38.22;98269.83;107676;1257;72291;-66
2023/03/09 07:55:34;;;;;;;;;;;;;;;18.96;39.03;98266.38;107752;1257;60680;-66
2023/03/09 07:58:02;;;;;;;14.70;9.00;;;;;;;18.94;39.11;98265.92;107756;1257;59234;-65
2023/03/09 08:00:32;;;;;;;15.40;9.30;;;;;;;18.84;39.03;98261.74;107748;1257;73599;-67
2023/03/09 08:03:01;;;;;;;15.00;9.60;;;;;;;18.68;39.69;98267.36;107751;1257;71360;-65
2023/03/09 08:05:29;;;;;;;15.70;10.40;;;;;;;18.11;40.45;98277.23;107751;1258;73341;-64
2023/03/09 08:08:01;;;;;;;18.50;10.20;;;;;;;18.08;40.60;98275.79;107710;1257;61250;-65
2023/03/09 08:10:30;;;;;;;19.90;10.80;;;;;;;17.82;41.51;98272.65;107734;1257;61583;-67
2023/03/09 08:12:59;;;;;;;18.40;10.30;;;;;;;17.40;41.95;98269.13;107769;1257;74028;-66
2023/03/09 08:15:28;;;;;;;17.20;10.20;;;;;;;17.66;41.42;98268.08;107847;1257;71655;-67
2023/03/09 08:18:01;;;;;;;16.60;10.80;;;;;;;17.68;41.76;98271.48;107780;1257;73961;-68
2023/03/09 08:20:31;;;;;;;22.00;11.40;;;;;;;17.75;41.45;98270.83;107985;1262;61597;-67
2023/03/09 08:22:59;;;;;;;18.70;11.60;;;;;;;17.68;41.87;98275.56;107865;1257;59978;-68
2023/03/09 08:25:27;;;;;;;19.60;11.60;;;;;;;18.14;41.08;98269.71;108025;1256;72716;-67
2023/03/09 08:27:55;;;;;;;20.40;12.20;;;;;;;18.58;39.91;98264.19;108016;1254;70161;-66
2023/03/09 08:30:24;;;;;;;20.80;11.20;;;;;;;19.21;39.50;98264.70;108038;1254;74083;-67
2023/03/09 08:32:54;;;;;;;21.50;11.10;;;;;;;19.93;37.72;98258.67;108050;1259;59404;-65
2023/03/09 08:35:25;;;;;;;21.40;10.70;;;;;;;20.96;36.21;98253.66;107984;1254;59183;-66
2023/03/09 08:37:53;;;;;;;17.00;11.20;;;;;;;21.51;35.38;98251.41;108023;1254;73084;-69
2023/03/09 08:40:22;;;;;;;18.80;10.50;;;;;;;22.08;33.79;98253.50;107938;1254;71285;-66
2023/03/09 08:42:51;;;;;;;16.00;9.80;;;;;;;22.62;32.92;98252.00;108024;1254;72462;-66
2023/03/09 08:45:19;;;;;;;19.90;10.30;;;;;;;22.74;32.57;98252.38;108026;1254;60731;-66
2023/03/09 08:47:48;;;;;;;15.00;9.00;;;;;;;23.03;31.78;98246.77;108043;1258;61348;-66
2023/03/09 08:50:16;;;;;;;19.20;10.00;;;;;;;23.46;31.23;98248.52;108024;1254;73792;-66
2023/03/09 08:52:44;;;;;;;16.40;9.20;;;;;;;23.60;30.66;98242.31;108050;1254;70544;-67
2023/03/09 08:55:16;;;;;;;13.90;8.20;;;;;;;23.44;30.75;98248.41;108027;1254;73412;-67
2023/03/09 08:57:44;;;;;;;15.00;7.80;;;;;;;23.93;30.27;98247.23;108026;1254;59384;-67
2023/03/09 09:00:15;;;;;;;14.00;8.30;;;;;;;24.29;29.29;98238.71;108046;1254;60171;-67
2023/03/09 09:02:45;;;;;;;14.30;7.70;;;;;;;24.12;29.69;98245.11;108064;1254;73895;-67
2023/03/09 09:05:13;;;;;;;14.90;8.50;;;;;;;24.18;29.59;98233.83;108040;1254;71423;-66
2023/03/09 09:07:44;;;;;;;13.00;8.10;;;;;;;24.00;29.33;98237.85;107990;1254;73892;-67
2023/03/09 09:10:13;;;;;;;15.70;9.60;;;;;;;23.67;29.95;98235.40;107968;1254;59401;-66
2023/03/09 09:13:02;;;;;;;13.40;8.40;;;;;;;24.02;29.53;98242.22;108000;1254;59577;-67
2023/03/09 09:15:31;;;;;;;13.00;8.20;;;;;;;24.49;29.22;98241.13;108043;1254;72510;-67
2023/03/09 09:18:00;;;;;;;12.60;7.30;;;;;;;24.42;29.25;98236.74;108069;1254;71487;-68
2023/03/09 09:20:29;;;;;;;13.10;7.00;;;;;;;24.79;28.35;98238.93;108053;1254;73131;-67
2023/03/09 09:22:58;;;;;;;11.10;6.50;;;;;;;24.98;28.21;98241.45;108028;1254;60443;-67
2023/03/09 09:25:26;;;;;;;11.40;6.50;;;;;;;24.77;28.35;98235.63;108049;1254;62014;-67
2023/03/09 09:27:56;;;;;;;9.00;5.90;;;;;;;24.97;28.11;98241.48;108061;1256;73839;-67
2023/03/09 09:30:25;;;;;;;11.50;6.10;;;;;;;25.06;28.38;98242.76;108041;1256;71098;-67
2023/03/09 09:32:52;;;;;;;16.60;7.20;;;;;;;25.16;27.97;98244.71;107954;1256;72250;-67
2023/03/09 09:35:21;;;;;;;9.40;6.10;;;;;;;25.09;27.94;98249.16;107825;1256;60857;-67
2023/03/09 09:37:51;;;;;;;9.40;6.20;;;;;;;24.30;28.87;98249.49;108031;1256;60632;-67
2023/03/09 09:40:20;;;;;;;;;;;;;;;23.64;29.31;98261.52;108041;1256;72993;-68
2023/03/09 09:42:49;;;;;;;11.60;6.10;;;;;;;23.89;29.54;98257.98;107877;1256;70384;-67
2023/03/09 09:45:32;;;;;;;8.90;5.50;;;;;;;23.81;29.39;98261.33;108001;1258;72767;-67
2023/03/09 09:48:04;;;;;;;9.80;5.60;;;;;;;23.32;29.72;98260.48;107959;1256;60283;-67
2023/03/09 09:51:03;;;;;;;10.90;5.80;;;;;;;23.36;30.04;98261.73;107804;1257;59529;-68
2023/03/09 09:53:32;;;;;;;11.40;6.30;;;;;;;23.21;30.45;98263.76;107986;1256;74614;-67
2023/03/09 09:56:01;;;;;;;9.50;6.10;;;;;;;22.86;30.35;98265.21;107989;1255;71313;-68
2023/03/09 09:58:35;;;;;;;13.90;5.90;;;;;;;22.60;31.14;98260.40;107827;1260;72264;-67
2023/03/09 10:01:33;;;;;;;8.30;5.80;;;;;;;22.32;31.27;98257.89;107974;1255;61450;-67
2023/03/09 10:04:05;;;;;;;12.50;5.90;;;;;;;22.19;31.71;98256.54;108012;1255;60002;-67
2023/03/09 10:06:33;;;;;;;11.50;5.70;;;;;;;22.14;32.27;98254.27;108007;1255;74090;-66
2023/03/09 10:09:23;;;;;;;7.70;5.60;;;;;;;22.38;31.51;98250.70;108013;1255;71187;-66
2023/03/09 10:11:53;;;;;;;9.60;5.70;;;;;;;22.48;31.16;98252.30;107942;1255;72807;-67
2023/03/09 10:14:41;;;;;;;11.60;6.80;;;;;;;22.75;31.75;98253.27;107988;1256;61698;-65
2023/03/09 10:17:33;;;;;;;17.90;8.40;;;;;;;23.13;30.67;98247.05;107832;1256;60937;-66
2023/03/09 10:20:32;;;;;;;9.80;6.40;;;;;;;23.35;30.40;98241.56;108015;1256;74012;-67
2023/03/09 10:23:00;;;;;;;11.80;5.90;;;;;;;23.88;30.08;98236.28;107934;1258;69095;-68
2023/03/09 10:25:29;;;;;;;30.10;7.70;;;;;;;24.24;29.56;98226.25;107742;1261;73707;-69
2023/03/09 10:28:05;;;;;;;9.80;5.30;;;;;;;24.59;28.88;98219.56;107743;1254;59632;-68
2023/03/09 10:30:39;;;;;;;13.80;6.10;;;;;;;25.31;28.37;98210.30;108033;1254;60227;-67
2023/03/09 10:33:17;;;;;;;11.10;5.50;;;;;;;25.43;27.81;98208.34;107986;1255;74352;-67
2023/03/09 10:36:05;;;;;;;9.70;4.90;;;;;;;25.79;27.33;98209.59;108063;1254;71551;-67
2023/03/09 10:38:35;;;;;;;8.00;4.90;;;;;;;26.63;26.67;98196.33;108032;1254;73938;-66
2023/03/09 10:41:15;;;;;;;7.30;3.90;;;;;;;26.84;26.00;98196.73;108032;1254;60738;-69
2023/03/09 10:43:44;;;;;;;6.80;4.20;;;;;;;27.28;25.42;98193.03;108017;1254;61422;-67
2023/03/09 10:46:16;;;;;;;8.50;4.20;;;;;;;27.52;25.21;98191.11;108078;1254;73803;-68
2023/03/09 10:48:45;;;;;;;7.90;4.60;;;;;;;27.49;24.88;98189.08;108059;1254;71563;-66
2023/03/09 10:51:27;;;;;;;8.50;4.90;;;;;;;27.39;25.03;98184.32;108057;1254;73613;-68
2023/03/09 10:53:56;;;;;;;6.70;4.50;;;;;;;27.20;25.35;98179.46;108050;1254;60825;-67
2023/03/09 10:56:27;;;;;;;9.30;4.80;;;;;;;26.86;25.30;98193.02;108080;1254;60613;-66
2023/03/09 10:59:07;;;;;;;8.00;5.10;;;;;;;26.57;26.00;98193.19;108156;1254;73751;-66
2023/03/09 11:01:37;;;;;;;7.20;4.80;;;;;;;26.16;26.27;98193.39;108105;1254;69356;-68
2023/03/09 11:04:27;;;;;;;7.80;4.60;;;;;;;25.95;26.36;98189.88;108012;1254;72330;-66
2023/03/09 11:06:59;;;;;;;8.20;4.20;;;;;;;25.36;26.98;98191.81;108017;1254;60528;-67
2023/03/09 11:09:30;;;;;;;6.80;4.90;;;;;;;25.06;27.52;98187.22;108035;1254;60316;-67
2023/03/09 11:12:09;;;;;;;7.30;4.70;;;;;;;24.92;27.41;98180.67;108046;1254;72834;-68
2023/03/09 11:14:48;;;;;;;9.00;4.70;;;;;;;24.45;28.28;98178.27;108017;1254;70430;-67
2023/03/09 11:17:39;;;;;;;8.00;4.50;;;;;;;24.37;28.27;98176.64;108044;1254;72639;-66
2023/03/09 11:20:18;;;;;;;18.00;4.10;;;;;;;24.60;27.94;98166.68;108135;1254;60393;-67
2023/03/09 11:23:09;;;;;;;7.10;4.70;;;;;;;24.02;28.90;98173.19;108009;1254;60320;-67
2023/03/09 11:26:01;;;;;;;8.80;5.60;;;;;;;23.91;29.01;98176.17;108006;1253;75101;-66
2023/03/09 11:28:50;;;;;;;10.20;5.40;;;;;;;23.68;29.18;98179.92;107997;1255;71377;-67
2023/03/09 11:31:24;;;;;;;12.00;6.40;;;;;;;23.87;29.02;98169.89;107828;1255;73834;-68
2023/03/09 11:33:54;;;;;;;10.60;4.70;;;;;;;23.96;29.51;98170.92;107999;1255;60556;-67
2023/03/09 11:36:27;;;;;;;10.20;5.60;;;;;;;23.84;28.94;98172.79;107957;1255;60774;-68
2023/03/09 11:38:55;;;;;;;10.60;5.50;;;;;;;23.65;29.56;98166.06;108076;1256;72906;-67
2023/03/09 11:41:30;;;;;;;12.90;5.80;;;;;;;23.87;29.42;98160.45;108140;1255;69469;-68
2023/03/09 11:44:02;;;;;;;9.50;5.70;;;;;;;23.96;28.84;98158.23;108096;1255;72364;-68
2023/03/09 11:46:31;;;;;;;12.20;5.70;;;;;;;24.07;29.18;98150.61;108020;1255;61578;-69
2023/03/09 11:49:20;;;;;;;12.90;6.30;;;;;;;24.10;29.08;98148.56;107930;1255;61339;-69
2023/03/09 11:51:49;;;;;;;9.60;5.50;;;;;;;24.05;28.71;98145.30;107889;1256;73158;-67
2023/03/09 11:54:39;;;;;;;9.30;5.60;;;;;;;24.08;29.36;98135.52;108034;1256;70693;-68
2023/03/09 11:57:16;;;;;;;9.70;5.30;;;;;;;24.18;29.00;98133.95;107938;1255;73377;-67
2023/03/09 12:00:06;;;;;;;8.80;5.30;;;;;;;24.38;28.23;98126.95;107718;1256;60566;-68
2023/03/09 12:02:55;;;;;;;16.70;5.80;;;;;;;23.94;29.32;98129.42;107955;1256;60541;-67
2023/03/09 12:05:26;;;;;;;13.00;5.70;;;;;;;24.05;28.89;98126.75;108013;1256;72719;-66
2023/03/09 12:08:06;;;;;;;10.40;5.50;;;;;;;24.01;28.68;98126.40;107980;1255;71293;-68
2023/03/09 12:11:03;;;;;;;12.00;6.00;;;;;;;24.06;29.17;98118.98;107998;1258;72223;-65
2023/03/09 12:13:35;;;;;;;14.30;6.00;;;;;;;24.26;28.84;98119.67;107998;1256;61559;-67
2023/03/09 12:16:07;;;;;;;11.80;6.80;;;;;;;24.12;28.90;98114.59;107979;1255;60344;-65
2023/03/09 12:18:39;;;;;;;13.50;6.40;;;;;;;23.59;29.72;98118.80;107849;1256;74273;-63
2023/03/09 12:21:09;;;;;;;13.90;6.90;;;;;;;23.71;29.41;98115.89;107960;1255;69714;-67
2023/03/09 12:23:42;;;;;;;10.70;6.80;;;;;;;23.78;29.03;98117.46;107996;1254;73449;-66
2023/03/09 12:26:11;;;;;;;17.50;7.10;;;;;;;23.63;29.84;98116.77;108040;1258;60554;-66
2023/03/09 12:28:40;;;;;;;27.30;8.20;;;;;;;23.59;29.48;98113.77;108075;1254;60322;-68
2023/03/09 12:31:29;;;;;;;13.30;6.80;;;;;;;23.90;29.53;98115.20;108043;1254;73256;-68
2023/03/09 12:33:59;;;;;;;13.30;6.80;;;;;;;24.08;29.53;98114.52;108102;1254;71575;-66
2023/03/09 12:36:32;;;;;;;12.30;5.90;;;;;;;23.67;29.74;98111.77;108031;1254;72880;-67
2023/03/09 12:39:22;;;;;;;10.50;5.40;;;;;;;23.52;29.79;98113.09;108086;1254;60511;-68
2023/03/09 12:41:57;;;;;;;8.60;5.20;;;;;;;23.56;30.17;98111.53;108094;1254;60195;-67
2023/03/09 12:44:47;;;;;;;12.50;6.80;;;;;;;23.38;29.94;98101.15;108054;1254;73050;-68
2023/03/09 12:47:37;;;;;;;12.60;6.30;;;;;;;23.71;29.58;98095.54;108047;1254;69362;-68
2023/03/09 12:50:30;;;;;;;9.40;6.00;;;;;;;23.09;30.85;98090.70;108085;1254;72498;-66
2023/03/09 12:53:14;;;;;;;9.90;6.70;;;;;;;23.00;30.77;98090.20;108066;1254;61035;-67
2023/03/09 12:55:48;;;;;;;12.80;7.20;;;;;;;23.45;29.94;98087.92;108098;1254;60857;-66
2023/03/09 12:58:17;;;;;;;9.30;5.90;;;;;;;23.73;29.96;98090.77;108097;1254;73821;-68
2023/03/09 13:00:52;;;;;;;17.30;6.60;;;;;;;23.87;29.18;98092.00;108063;1257;69518;-67
2023/03/09 13:04:07;;;;;;;17.50;6.40;;;;;;;23.83;29.70;98101.05;108089;1255;72874;-66
2023/03/09 13:06:56;;;;;;;8.10;5.00;;;;;;;24.09;29.61;98100.48;108161;1254;61588;-68
2023/03/09 13:09:36;;;;;;;13.30;6.30;;;;;;;24.15;29.33;98100.34;108116;1254;61721;-66
2023/03/09 13:12:15;;;;;;;12.50;5.40;;;;;;;24.29;28.92;98096.16;108130;1254;74965;-66
2023/03/09 13:14:50;;;;;;;11.70;5.20;;;;;;;24.23;29.27;98092.67;108156;1254;69448;-67
2023/03/09 13:17:31;;;;;;;11.20;5.90;;;;;;;24.11;29.39;98092.77;108098;1254;74045;-67
2023/03/09 13:20:31;;;;;;;12.20;5.40;;;;;;;24.34;29.21;98092.69;108118;1254;60336;-65
2023/03/09 13:23:04;;;;;;;8.50;5.30;;;;;;;24.10;30.80;98094.52;108009;1254;60523;-67
2023/03/09 13:25:42;;;;;;;9.10;5.30;;;;;;;24.18;31.27;98095.73;107969;1254;74652;-66
2023/03/09 13:28:28;;;;;;;11.20;5.90;;;;;;;24.48;30.21;98098.23;108052;1255;69917;-67
2023/03/09 13:31:00;;;;;;;11.60;5.70;;;;;;;24.35;31.57;98092.52;108046;1256;72782;-66
2023/03/09 13:33:33;;;;;;;10.40;5.80;;;;;;;23.93;32.35;98091.73;107947;1256;60260;-67
2023/03/09 13:36:19;;;;;;;10.20;5.80;;;;;;;23.91;31.34;98091.42;108040;1255;60369;-67
2023/03/09 13:39:04;;;;;;;12.30;5.70;;;;;;;23.66;33.17;98090.16;108084;1255;71812;-67
2023/03/09 13:41:33;;;;;;;11.60;6.20;;;;;;;23.58;33.02;98087.45;107967;1256;71083;-68
2023/03/09 13:44:01;;;;;;;12.10;5.90;;;;;;;23.75;32.95;98086.58;107933;1255;72065;-65
2023/03/09 13:46:33;;;;;;;9.40;5.10;;;;;;;23.77;33.37;98082.30;107957;1255;60759;-67
2023/03/09 13:49:12;;;;;;;17.00;6.60;;;;;;;23.93;32.36;98080.98;107943;1256;61271;-66
2023/03/09 13:51:57;;;;;;;12.00;7.10;;;;;;;24.02;32.90;98076.98;107870;1256;75030;-67
2023/03/09 13:54:34;;;;;;;13.90;6.80;;;;;;;23.77;33.90;98077.92;107953;1254;71587;-68
2023/03/09 13:57:04;;;;;;;15.90;8.60;;;;;;;23.45;34.45;98071.52;108023;1254;70622;-68
2023/03/09 14:00:04;;;;;;;13.30;7.50;;;;;;;23.54;34.64;98069.02;108005;1255;60468;-68
2023/03/09 14:02:38;;;;;;;14.10;7.10;;;;;;;24.01;33.67;98072.05;107962;1254;60909;-67
2023/03/09 14:05:17;;;;;;;16.10;8.60;;;;;;;24.11;34.01;98066.18;108046;1254;74858;-68
2023/03/09 14:08:14;;;;;;;21.80;9.90;;;;;;;24.17;34.48;98065.27;107941;1256;69558;-67
2023/03/09 14:10:42;;;;;;;12.20;7.20;;;;;;;23.74;35.59;98064.29;107747;1256;72932;-66
2023/03/09 14:13:21;;;;;;;15.80;9.40;;;;;;;23.43;35.30;98061.91;107957;1255;60347;-68
2023/03/09 14:15:53;;;;;;;19.00;9.40;;;;;;;23.22;36.48;98062.41;107997;1256;60272;-69
2023/03/09 14:18:43;;;;;;;17.70;9.70;;;;;;;23.32;37.26;98056.38;108012;1256;74794;-67
2023/03/09 14:21:37;;;;;;;29.30;13.10;;;;;;;23.04;38.91;98052.64;107978;1256;70224;-67
2023/03/09 14:24:34;;;;;;;27.90;14.70;;;;;;;22.98;39.43;98048.35;107950;1255;73878;-67
2023/03/09 14:27:31;;;;;;;124.50;56.80;;;;;;;22.76;40.46;98047.49;107938;1256;62961;-68
2023/03/09 14:30:27;;;;;;;34.00;17.90;;;;;;;22.68;40.72;98045.91;108064;1254;59544;-69
2023/03/09 14:33:05;;;;;;;101.70;34.20;;;;;;;22.77;40.79;98048.92;108157;1256;74604;-66
2023/03/09 14:35:38;;;;;;;41.20;19.90;;;;;;;22.71;40.40;98046.27;108124;1254;71602;-67
2023/03/09 14:38:18;;;;;;;39.30;19.20;;;;;;;22.74;40.60;98052.88;108083;1254;73819;-66
2023/03/09 14:40:47;;;;;;;29.30;15.10;;;;;;;22.69;40.37;98055.45;108079;1254;60419;-66
2023/03/09 14:43:26;;;;;;;21.10;9.60;;;;;;;22.85;40.55;98060.38;108043;1254;60277;-66
2023/03/09 14:46:22;;;;;;;12.10;7.20;;;;;;;22.65;41.22;98064.71;108122;1255;74177;-67
2023/03/09 14:48:55;;;;;;;16.20;8.70;;;;;;;22.36;40.65;98067.23;108057;1254;70419;-66
2023/03/09 14:51:25;;;;;;;13.90;7.50;;;;;;;22.42;41.33;98068.70;108078;1254;72705;-65
2023/03/09 14:53:57;;;;;;;14.40;7.80;;;;;;;22.21;41.63;98067.98;108085;1254;63389;-68
2023/03/09 14:56:26;;;;;;;12.60;7.60;;;;;;;22.26;41.97;98077.91;108086;1254;60303;-68
2023/03/09 14:58:54;;;;;;;10.50;6.90;;;;;;;22.02;43.83;98078.05;108094;1257;74130;-66
2023/03/09 15:01:29;;;;;;;16.40;9.10;;;;;;;21.95;42.70;98085.97;108111;1254;71549;-68
2023/03/09 15:03:59;;;;;;;19.50;10.80;;;;;;;21.79;43.43;98095.02;108047;1254;73368;-67
2023/03/09 15:06:27;;;;;;;18.60;9.90;;;;;;;21.46;44.24;98102.88;108069;1254;61484;-66
2023/03/09 15:08:58;;;;;;;16.20;10.10;;;;;;;21.26;44.18;98112.30;108047;1254;61677;-66
2023/03/09 15:11:26;;;;;;;14.30;9.70;;;;;;;21.05;44.60;98114.49;108043;1254;74141;-67
2023/03/09 15:13:55;;;;;;;16.00;10.60;;;;;;;20.96;44.83;98118.71;107982;1254;70833;-67
2023/03/09 15:16:26;;;;;;;15.00;9.90;;;;;;;20.86;44.64;98114.27;108111;1255;73847;-66
2023/03/09 15:18:55;;;;;;;20.80;10.60;;;;;;;20.61;45.19;98115.41;107953;1256;60945;-66
2023/03/09 15:21:23;;;;;;;14.80;9.90;;;;;;;20.41;45.29;98119.70;107998;1255;61021;-67
2023/03/09 15:23:52;;;;;;;14.00;9.90;;;;;;;20.45;45.98;98116.67;107982;1255;73191;-66
2023/03/09 15:26:21;;;;;;;15.30;9.40;;;;;;;20.53;45.60;98113.27;107932;1256;72390;-67
2023/03/09 15:28:53;;;;;;;18.60;11.40;;;;;;;20.70;45.10;98113.54;108036;1254;73466;-68
2023/03/09 15:31:22;;;;;;;16.70;10.80;;;;;;;20.69;45.27;98114.21;108096;1254;60547;-65
2023/03/09 15:33:51;;;;;;;18.10;10.70;;;;;;;20.23;46.48;98113.90;108055;1254;61399;-67
2023/03/09 15:36:20;;;;;;;21.60;11.70;;;;;;;20.28;46.01;98114.06;108124;1254;74838;-66
2023/03/09 15:38:49;;;;;;;15.90;10.60;;;;;;;19.70;47.41;98110.11;108036;1254;70763;-67
2023/03/09 15:41:17;;;;;;;17.00;10.80;;;;;;;19.65;47.39;98113.89;107989;1255;72209;-67
2023/03/09 15:43:46;;;;;;;20.20;13.10;;;;;;;19.69;47.33;98110.77;108000;1255;63110;-67
2023/03/09 15:46:14;;;;;;;22.70;13.80;;;;;;;19.45;47.58;98113.83;107988;1255;60332;-67
2023/03/09 15:48:43;;;;;;;21.30;12.50;;;;;;;19.78;47.55;98107.57;108028;1256;75058;-69
2023/03/09 15:51:11;;;;;;;17.80;13.10;;;;;;;19.84;47.65;98105.80;108002;1256;71259;-67
2023/03/09 15:53:40;;;;;;;19.50;13.20;;;;;;;19.78;47.91;98104.44;107981;1258;73201;-67
2023/03/09 15:56:09;;;;;;;22.00;14.60;;;;;;;19.74;48.15;98102.04;108005;1255;62262;-68
2023/03/09 15:58:37;;;;;;;16.40;11.60;;;;;;;20.00;48.05;98101.32;108027;1255;60534;-68
2023/03/09 16:01:12;;;;;;;20.30;13.90;;;;;;;19.90;47.76;98104.63;107996;1256;74510;-68
2023/03/09 16:03:41;;;;;;;20.30;12.90;;;;;;;19.19;49.24;98101.50;107943;1256;69379;-68
2023/03/09 16:06:09;;;;;;;17.60;13.10;;;;;;;19.32;49.27;98104.20;107974;1256;73576;-68
2023/03/09 16:08:37;;;;;;;20.20;12.60;;;;;;;19.33;49.17;98102.52;108008;1256;61236;-68
2023/03/09 16:11:08;;;;;;;18.90;12.70;;;;;;;19.20;49.55;98099.87;108078;1255;60291;-67
2023/03/09 16:13:36;;;;;;;21.10;12.80;;;;;;;19.35;49.32;98100.25;108063;1256;73491;-67
2023/03/09 16:16:05;;;;;;;18.50;13.00;;;;;;;19.56;48.99;98101.15;108055;1256;69960;-68
2023/03/09 16:18:45;;;;;;;21.10;12.80;;;;;;;19.65;48.83;98095.87;107946;1256;74047;-67
2023/03/09 16:21:15;;;;;;;22.10;13.70;;;;;;;18.96;50.21;98093.15;107825;1260;63019;-67
2023/03/09 16:23:49;;;;;;;20.60;11.70;;;;;;;18.74;51.12;98092.77;107965;1255;61041;-66
2023/03/09 16:26:19;;;;;;;17.60;11.80;;;;;;;19.19;50.13;98095.23;107925;1254;73626;-68
2023/03/09 16:28:48;;;;;;;21.10;12.30;;;;;;;19.13;50.11;98104.21;107723;1256;71105;-67
2023/03/09 16:31:23;;;;;;;19.80;12.00;;;;;;;19.10;50.18;98109.86;107897;1256;71805;-67
2023/03/09 16:33:57;;;;;;;;;;;;;;;18.99;50.34;98106.58;107888;1256;63244;-66
2023/03/09 16:36:26;;;;;;;18.60;12.50;;;;;;;18.71;50.95;98103.64;107942;1256;61014;-67
2023/03/09 16:39:00;;;;;;;19.90;12.80;;;;;;;18.74;51.08;98102.93;107847;1260;75023;-67
2023/03/09 16:41:29;;;;;;;23.00;13.10;;;;;;;18.91;50.76;98102.04;107987;1254;69777;-68
2023/03/09 16:43:57;;;;;;;35.30;16.80;;;;;;;19.17;50.29;98099.30;107999;1256;73991;-68
2023/03/09 16:46:26;;;;;;;35.50;18.50;;;;;;;18.98;50.57;98104.70;107886;1255;61357;-67
2023/03/09 16:48:56;;;;;;;39.60;20.70;;;;;;;18.86;50.86;98108.09;107981;1257;61295;-68
2023/03/09 16:51:24;;;;;;;32.90;20.80;;;;;;;18.74;51.32;98113.43;107985;1256;73717;-67
2023/03/09 16:53:53;;;;;;;37.70;21.40;;;;;;;19.13;50.62;98112.98;107959;1256;69558;-66
2023/03/09 16:56:23;;;;;;;43.40;23.40;;;;;;;19.25;50.29;98104.42;107941;1255;72952;-67
2023/03/09 16:58:51;;;;;;;43.10;23.70;;;;;;;19.29;50.20;98104.50;107938;1256;62249;-68
2023/03/09 17:01:20;;;;;;;53.60;23.70;;;;;;;19.43;49.95;98101.23;107985;1255;61387;-67
2023/03/09 17:03:48;;;;;;;50.00;22.20;;;;;;;19.28;50.33;98101.70;107919;1256;74953;-67
2023/03/09 17:06:18;;;;;;;45.90;25.00;;;;;;;19.25;50.22;98104.92;107981;1255;70658;-67
2023/03/09 17:08:52;;;;;;;61.50;25.60;;;;;;;18.98;50.92;98103.84;107923;1255;73608;-68
2023/03/09 17:11:21;;;;;;;49.00;22.70;;;;;;;19.04;50.92;98114.25;107919;1255;62126;-68
2023/03/09 17:13:51;;;;;;;37.00;21.80;;;;;;;19.10;50.87;98129.05;107964;1256;61401;-66
2023/03/09 17:16:20;;;;;;;38.80;23.20;;;;;;;19.29;50.42;98134.00;107905;1255;73221;-68
2023/03/09 17:18:49;;;;;;;37.20;21.10;;;;;;;19.36;50.34;98133.65;107932;1256;70379;-66
2023/03/09 17:21:18;;;;;;;36.40;20.90;;;;;;;19.13;50.47;98121.45;107959;1256;73798;-66
2023/03/09 17:23:51;;;;;;;40.80;23.80;;;;;;;19.22;50.20;98114.35;107935;1255;61445;-66
2023/03/09 17:26:20;;;;;;;38.60;23.80;;;;;;;18.91;50.96;98112.52;107855;1258;60802;-66
2023/03/09 17:28:48;;;;;;;38.00;23.10;;;;;;;18.55;52.02;98115.50;107883;1256;74850;-68
2023/03/09 17:31:17;;;;;;;40.50;24.30;;;;;;;18.78;51.71;98115.42;107945;1256;71593;-67
2023/03/09 17:33:47;;;;;;;;;;;;;;;18.77;51.72;98107.10;107940;1256;73663;-67
2023/03/09 17:36:17;;;;;;;52.10;31.10;;;;;;;18.80;51.80;98100.11;107875;1256;61419;-67
2023/03/09 17:38:51;;;;;;;32.70;21.20;;;;;;;19.25;50.71;98098.14;107906;1256;60670;-68
2023/03/09 17:41:21;;;;;;;38.50;23.00;;;;;;;18.72;51.51;98101.98;107891;1256;73884;-68
2023/03/09 17:43:49;;;;;;;35.90;22.30;;;;;;;18.76;51.58;98098.30;107970;1256;69954;-67
2023/03/09 17:46:19;;;;;;;42.40;27.80;;;;;;;19.16;50.50;98099.62;107930;1256;73660;-68
2023/03/09 17:48:47;;;;;;;33.10;21.70;;;;;;;19.20;50.12;98101.52;107900;1255;61472;-68
2023/03/09 17:51:18;;;;;;;29.00;18.90;;;;;;;18.99;50.38;98108.27;108003;1256;61333;-67
2023/03/09 17:53:48;;;;;;;31.20;19.80;;;;;;;18.80;50.57;98106.92;107944;1255;74191;-68
2023/03/09 17:56:16;;;;;;;63.10;38.90;;;;;;;18.90;50.43;98118.00;107964;1256;71475;-68
2023/03/09 17:58:46;;;;;;;50.10;31.90;;;;;;;18.93;50.46;98122.63;107929;1256;73663;-68
2023/03/09 18:01:28;;;;;;;41.00;25.00;;;;;;;18.60;51.36;98114.77;107891;1256;61170;-67
2023/03/09 18:04:00;;;;;;;37.40;25.90;;;;;;;18.59;51.62;98103.06;107925;1256;61410;-69
2023/03/09 18:06:30;;;;;;;38.10;25.10;;;;;;;18.51;51.94;98098.98;108007;1256;74733;-68
2023/03/09 18:08:58;;;;;;;36.00;23.40;;;;;;;18.59;52.09;98093.23;107960;1256;71165;-68
2023/03/09 18:11:29;;;;;;;45.10;26.70;;;;;;;18.46;52.45;98087.48;107946;1256;74403;-68